sensor_id;sensor_type;location;lat;lon;timestamp;pressure;altitude;pressure_sealevel;temperature;humidity
48846;BME280;34665;51.886;5.436;2023-02-18T00:01:22;102071.13;;;17.14;100.00
48846;BME280;34665;51.886;5.436;2023-02-18T00:03:49;102065.28;;;16.97;100.00
48846;BME280;34665;51.886;5.436;2023-02-18T00:06:34;102078.38;;;17.34;100.00
48846;BME280;34665;51.886;5.436;2023-02-18T00:09:00;102067.78;;;17.32;100.00
48846;BME280;34665;51.886;5.436;2023-02-18T00:11:28;102068.41;;;16.94;100.00
48846;BME280;34665;51.886;5.436;2023-02-18T00:13:56;102064.28;;;16.98;100.00
48846;BME280;34665;51.886;5.436;2023-02-18T00:16:23;102073.63;;;16.89;100.00
48846;BME280;34665;51.886;5.436;2023-02-18T00:18:50;102066.75;;;17.33;100.00
48846;BME280;34665;51.886;5.436;2023-02-18T00:21:16;102065.28;;;16.97;100.00
48846;BME280;34665;51.886;5.436;2023-02-18T00:23:41;102068.16;;;17.49;100.00
48846;BME280;34665;51.886;5.436;2023-02-18T00:26:13;102052.38;;;17.46;100.00
48846;BME280;34665;51.886;5.436;2023-02-18T00:28:39;102066.53;;;17.42;100.00
48846;BME280;34665;51.886;5.436;2023-02-18T00:31:12;102065.22;;;17.65;100.00
48846;BME280;34665;51.886;5.436;2023-02-18T00:33:39;102055.69;;;17.48;100.00
48846;BME280;34665;51.886;5.436;2023-02-18T00:36:09;102054.75;;;17.75;100.00
48846;BME280;34665;51.886;5.436;2023-02-18T00:38:36;102049.66;;;17.53;100.00
48846;BME280;34665;51.886;5.436;2023-02-18T00:41:02;102043.28;;;17.07;100.00
48846;BME280;34665;51.886;5.436;2023-02-18T00:43:27;102047.41;;;17.23;100.00
48846;BME280;34665;51.886;5.436;2023-02-18T00:45:53;102050.09;;;17.43;100.00
48846;BME280;34665;51.886;5.436;2023-02-18T00:48:19;102045.56;;;17.17;100.00
48846;BME280;34665;51.886;5.436;2023-02-18T00:50:45;102042.59;;;17.98;100.00
48846;BME280;34665;51.886;5.436;2023-02-18T00:53:11;102032.28;;;18.27;100.00
48846;BME280;34665;51.886;5.436;2023-02-18T00:55:41;102033.31;;;18.58;100.00
48846;BME280;34665;51.886;5.436;2023-02-18T00:58:06;102028.97;;;17.79;100.00
48846;BME280;34665;51.886;5.436;2023-02-18T01:00:32;102014.81;;;17.77;100.00
48846;BME280;34665;51.886;5.436;2023-02-18T01:02:58;102009.66;;;17.62;100.00
48846;BME280;34665;51.886;5.436;2023-02-18T01:05:24;102002.97;;;18.74;100.00
48846;BME280;34665;51.886;5.436;2023-02-18T01:07:50;102010.94;;;19.13;100.00
48846;BME280;34665;51.886;5.436;2023-02-18T01:10:15;101999.28;;;17.98;100.00
48846;BME280;34665;51.886;5.436;2023-02-18T01:12:41;102000.41;;;17.83;100.00
48846;BME280;34665;51.886;5.436;2023-02-18T01:15:08;101996.09;;;17.75;100.00
48846;BME280;34665;51.886;5.436;2023-02-18T01:17:34;102008.97;;;17.80;100.00
48846;BME280;34665;51.886;5.436;2023-02-18T01:20:04;102000.28;;;17.71;100.00
48846;BME280;34665;51.886;5.436;2023-02-18T01:22:29;102008.91;;;18.58;100.00
48846;BME280;34665;51.886;5.436;2023-02-18T01:24:55;102002.09;;;18.23;100.00
48846;BME280;34665;51.886;5.436;2023-02-18T01:27:21;102000.59;;;18.27;100.00
48846;BME280;34665;51.886;5.436;2023-02-18T01:29:46;102000.69;;;17.68;100.00
48846;BME280;34665;51.886;5.436;2023-02-18T01:32:12;102000.84;;;18.26;100.00
48846;BME280;34665;51.886;5.436;2023-02-18T01:34:37;102008.59;;;18.15;100.00
48846;BME280;34665;51.886;5.436;2023-02-18T01:37:03;102005.44;;;18.18;100.00
48846;BME280;34665;51.886;5.436;2023-02-18T01:39:29;101999.56;;;17.89;100.00
48846;BME280;34665;51.886;5.436;2023-02-18T01:41:54;102017.69;;;17.89;100.00
48846;BME280;34665;51.886;5.436;2023-02-18T01:44:23;102013.53;;;18.57;100.00
48846;BME280;34665;51.886;5.436;2023-02-18T01:46:49;102004.16;;;18.28;100.00
48846;BME280;34665;51.886;5.436;2023-02-18T01:49:27;101994.69;;;18.12;100.00
48846;BME280;34665;51.886;5.436;2023-02-18T01:51:58;101988.75;;;18.22;100.00
48846;BME280;34665;51.886;5.436;2023-02-18T01:54:35;101993.84;;;17.66;100.00
48846;BME280;34665;51.886;5.436;2023-02-18T01:57:13;101984.91;;;18.11;100.00
48846;BME280;34665;51.886;5.436;2023-02-18T01:59:43;101986.13;;;18.40;100.00
48846;BME280;34665;51.886;5.436;2023-02-18T02:02:13;101970.94;;;17.68;100.00
48846;BME280;34665;51.886;5.436;2023-02-18T02:04:41;101975.94;;;18.10;100.00
48846;BME280;34665;51.886;5.436;2023-02-18T02:07:08;101974.75;;;17.92;100.00
48846;BME280;34665;51.886;5.436;2023-02-18T02:09:35;101970.19;;;17.54;100.00
48846;BME280;34665;51.886;5.436;2023-02-18T02:12:13;101964.63;;;17.42;100.00
48846;BME280;34665;51.886;5.436;2023-02-18T02:17:33;101970.53;;;18.10;100.00
48846;BME280;34665;51.886;5.436;2023-02-18T02:22:43;101955.69;;;17.81;100.00
48846;BME280;34665;51.886;5.436;2023-02-18T02:25:26;101952.72;;;18.28;100.00
48846;BME280;34665;51.886;5.436;2023-02-18T02:33:57;101921.56;;;17.80;100.00
48846;BME280;34665;51.886;5.436;2023-02-18T02:39:25;101909.78;;;18.75;100.00
48846;BME280;34665;51.886;5.436;2023-02-18T02:42:03;101903.69;;;18.36;100.00
48846;BME280;34665;51.886;5.436;2023-02-18T02:44:40;101883.22;;;18.40;100.00
48846;BME280;34665;51.886;5.436;2023-02-18T02:47:14;101882.47;;;18.33;100.00
48846;BME280;34665;51.886;5.436;2023-02-18T02:49:52;101887.31;;;18.68;100.00
48846;BME280;34665;51.886;5.436;2023-02-18T02:52:26;101883.13;;;18.28;100.00
48846;BME280;34665;51.886;5.436;2023-02-18T02:54:55;101880.97;;;18.37;100.00
48846;BME280;34665;51.886;5.436;2023-02-18T03:00:07;101869.22;;;18.25;100.00
48846;BME280;34665;51.886;5.436;2023-02-18T03:05:36;101847.06;;;18.34;100.00
48846;BME280;34665;51.886;5.436;2023-02-18T03:10:55;101838.88;;;18.60;100.00
48846;BME280;34665;51.886;5.436;2023-02-18T03:16:23;101843.50;;;18.34;100.00
48846;BME280;34665;51.886;5.436;2023-02-18T03:19:24;101840.22;;;18.51;100.00
48846;BME280;34665;51.886;5.436;2023-02-18T03:22:11;101828.38;;;18.01;100.00
48846;BME280;34665;51.886;5.436;2023-02-18T03:24:41;101824.75;;;17.82;100.00
48846;BME280;34665;51.886;5.436;2023-02-18T03:27:17;101813.28;;;17.86;100.00
48846;BME280;34665;51.886;5.436;2023-02-18T03:29:45;101808.31;;;17.83;100.00
48846;BME280;34665;51.886;5.436;2023-02-18T03:32:16;101808.44;;;17.95;100.00
48846;BME280;34665;51.886;5.436;2023-02-18T03:34:48;101792.28;;;17.56;100.00
48846;BME280;34665;51.886;5.436;2023-02-18T03:37:15;101805.44;;;18.29;100.00
48846;BME280;34665;51.886;5.436;2023-02-18T03:39:43;101801.13;;;17.96;100.00
48846;BME280;34665;51.886;5.436;2023-02-18T03:42:10;101788.84;;;18.62;100.00
48846;BME280;34665;51.886;5.436;2023-02-18T03:44:36;101786.09;;;17.49;100.00
48846;BME280;34665;51.886;5.436;2023-02-18T03:47:02;101788.31;;;18.10;100.00
48846;BME280;34665;51.886;5.436;2023-02-18T03:49:27;101782.66;;;17.67;100.00
48846;BME280;34665;51.886;5.436;2023-02-18T03:51:52;101776.84;;;17.89;100.00
48846;BME280;34665;51.886;5.436;2023-02-18T03:54:18;101772.78;;;18.05;100.00
48846;BME280;34665;51.886;5.436;2023-02-18T03:56:45;101770.22;;;17.59;100.00
48846;BME280;34665;51.886;5.436;2023-02-18T03:59:11;101765.25;;;17.56;100.00
48846;BME280;34665;51.886;5.436;2023-02-18T04:01:37;101756.09;;;18.08;100.00
48846;BME280;34665;51.886;5.436;2023-02-18T04:04:03;101753.94;;;18.36;100.00
48846;BME280;34665;51.886;5.436;2023-02-18T04:06:29;101754.13;;;18.15;100.00
48846;BME280;34665;51.886;5.436;2023-02-18T04:08:55;101745.19;;;18.15;100.00
48846;BME280;34665;51.886;5.436;2023-02-18T04:11:21;101743.38;;;18.27;100.00
48846;BME280;34665;51.886;5.436;2023-02-18T04:13:47;101735.25;;;17.58;100.00
48846;BME280;34665;51.886;5.436;2023-02-18T04:16:13;101731.41;;;17.15;100.00
48846;BME280;34665;51.886;5.436;2023-02-18T04:18:39;101727.75;;;18.11;100.00
48846;BME280;34665;51.886;5.436;2023-02-18T04:21:04;101723.25;;;17.98;100.00
48846;BME280;34665;51.886;5.436;2023-02-18T04:23:30;101734.44;;;17.57;100.00
48846;BME280;34665;51.886;5.436;2023-02-18T04:25:56;101731.56;;;17.27;100.00
48846;BME280;34665;51.886;5.436;2023-02-18T04:28:21;101724.34;;;17.46;100.00
48846;BME280;34665;51.886;5.436;2023-02-18T04:30:47;101734.97;;;17.91;100.00
48846;BME280;34665;51.886;5.436;2023-02-18T04:33:12;101723.19;;;17.60;100.00
48846;BME280;34665;51.886;5.436;2023-02-18T04:35:39;101729.78;;;17.39;100.00
48846;BME280;34665;51.886;5.436;2023-02-18T04:38:08;101719.84;;;18.09;100.00
48846;BME280;34665;51.886;5.436;2023-02-18T04:40:34;101724.22;;;18.10;100.00
48846;BME280;34665;51.886;5.436;2023-02-18T04:43:00;101748.28;;;17.93;100.00
48846;BME280;34665;51.886;5.436;2023-02-18T04:45:27;101715.63;;;18.13;100.00
48846;BME280;34665;51.886;5.436;2023-02-18T04:47:53;101718.59;;;18.12;100.00
48846;BME280;34665;51.886;5.436;2023-02-18T04:50:20;101725.19;;;17.90;100.00
48846;BME280;34665;51.886;5.436;2023-02-18T04:52:46;101732.31;;;18.10;100.00
48846;BME280;34665;51.886;5.436;2023-02-18T04:55:12;101726.06;;;17.66;100.00
48846;BME280;34665;51.886;5.436;2023-02-18T04:57:38;101733.34;;;17.40;100.00
48846;BME280;34665;51.886;5.436;2023-02-18T05:00:06;101705.84;;;17.43;100.00
48846;BME280;34665;51.886;5.436;2023-02-18T05:02:32;101705.41;;;17.71;100.00
48846;BME280;34665;51.886;5.436;2023-02-18T05:04:58;101692.31;;;18.12;100.00
48846;BME280;34665;51.886;5.436;2023-02-18T05:07:23;101688.75;;;18.68;100.00
48846;BME280;34665;51.886;5.436;2023-02-18T05:09:50;101682.38;;;18.43;100.00
48846;BME280;34665;51.886;5.436;2023-02-18T05:12:15;101691.03;;;18.33;100.00
48846;BME280;34665;51.886;5.436;2023-02-18T05:14:41;101692.25;;;17.75;100.00
48846;BME280;34665;51.886;5.436;2023-02-18T05:17:06;101684.72;;;17.58;100.00
48846;BME280;34665;51.886;5.436;2023-02-18T05:19:31;101676.72;;;17.45;100.00
48846;BME280;34665;51.886;5.436;2023-02-18T05:21:57;101678.97;;;17.73;100.00
48846;BME280;34665;51.886;5.436;2023-02-18T05:24:23;101675.50;;;17.41;100.00
48846;BME280;34665;51.886;5.436;2023-02-18T05:26:48;101677.97;;;17.68;100.00
48846;BME280;34665;51.886;5.436;2023-02-18T05:29:13;101675.03;;;18.32;100.00
48846;BME280;34665;51.886;5.436;2023-02-18T05:31:39;101679.50;;;18.57;100.00
48846;BME280;34665;51.886;5.436;2023-02-18T05:34:04;101700.06;;;17.65;100.00
48846;BME280;34665;51.886;5.436;2023-02-18T05:36:31;101690.75;;;17.03;100.00
48846;BME280;34665;51.886;5.436;2023-02-18T05:38:56;101695.41;;;16.82;100.00
48846;BME280;34665;51.886;5.436;2023-02-18T05:41:22;101671.69;;;17.48;100.00
48846;BME280;34665;51.886;5.436;2023-02-18T05:43:47;101668.50;;;17.58;100.00
48846;BME280;34665;51.886;5.436;2023-02-18T05:46:32;101682.00;;;17.08;100.00
48846;BME280;34665;51.886;5.436;2023-02-18T05:48:58;101675.34;;;17.03;100.00
48846;BME280;34665;51.886;5.436;2023-02-18T05:51:23;101666.75;;;17.64;100.00
48846;BME280;34665;51.886;5.436;2023-02-18T05:53:49;101667.28;;;17.73;100.00
48846;BME280;34665;51.886;5.436;2023-02-18T05:56:14;101665.44;;;17.48;100.00
48846;BME280;34665;51.886;5.436;2023-02-18T05:58:39;101648.16;;;17.30;100.00
48846;BME280;34665;51.886;5.436;2023-02-18T06:01:05;101669.78;;;16.98;100.00
48846;BME280;34665;51.886;5.436;2023-02-18T06:03:31;101667.09;;;16.98;100.00
48846;BME280;34665;51.886;5.436;2023-02-18T06:05:57;101654.53;;;17.11;100.00
48846;BME280;34665;51.886;5.436;2023-02-18T06:08:22;101648.41;;;17.22;100.00
48846;BME280;34665;51.886;5.436;2023-02-18T06:10:48;101637.97;;;17.00;100.00
48846;BME280;34665;51.886;5.436;2023-02-18T06:13:13;101645.13;;;16.81;100.00
48846;BME280;34665;51.886;5.436;2023-02-18T06:15:39;101649.41;;;17.28;100.00
48846;BME280;34665;51.886;5.436;2023-02-18T06:18:05;101626.06;;;17.08;100.00
48846;BME280;34665;51.886;5.436;2023-02-18T06:20:31;101639.00;;;16.99;100.00
48846;BME280;34665;51.886;5.436;2023-02-18T06:22:57;101627.53;;;17.55;100.00
48846;BME280;34665;51.886;5.436;2023-02-18T06:25:22;101646.88;;;17.08;100.00
48846;BME280;34665;51.886;5.436;2023-02-18T06:27:48;101642.94;;;17.54;100.00
48846;BME280;34665;51.886;5.436;2023-02-18T06:30:14;101637.25;;;17.37;100.00
48846;BME280;34665;51.886;5.436;2023-02-18T06:32:39;101641.56;;;16.55;100.00
48846;BME280;34665;51.886;5.436;2023-02-18T06:35:05;101654.53;;;17.11;100.00
48846;BME280;34665;51.886;5.436;2023-02-18T06:37:30;101658.13;;;16.59;100.00
48846;BME280;34665;51.886;5.436;2023-02-18T06:39:56;101664.78;;;16.95;100.00
48846;BME280;34665;51.886;5.436;2023-02-18T06:42:22;101655.03;;;17.01;100.00
48846;BME280;34665;51.886;5.436;2023-02-18T06:44:47;101665.78;;;17.58;100.00
48846;BME280;34665;51.886;5.436;2023-02-18T06:47:13;101669.88;;;17.17;100.00
48846;BME280;34665;51.886;5.436;2023-02-18T06:49:38;101669.81;;;17.49;100.00
48846;BME280;34665;51.886;5.436;2023-02-18T06:52:04;101675.31;;;17.10;100.00
48846;BME280;34665;51.886;5.436;2023-02-18T06:54:29;101662.38;;;17.19;100.00
48846;BME280;34665;51.886;5.436;2023-02-18T06:56:55;101666.34;;;17.42;100.00
48846;BME280;34665;51.886;5.436;2023-02-18T06:59:20;101661.78;;;17.42;100.00
48846;BME280;34665;51.886;5.436;2023-02-18T07:01:45;101658.94;;;17.05;100.00
48846;BME280;34665;51.886;5.436;2023-02-18T07:04:11;101659.81;;;16.99;100.00
48846;BME280;34665;51.886;5.436;2023-02-18T07:06:36;101671.75;;;16.77;100.00
48846;BME280;34665;51.886;5.436;2023-02-18T07:09:02;101659.06;;;17.42;100.00
48846;BME280;34665;51.886;5.436;2023-02-18T07:11:27;101661.41;;;16.68;100.00
48846;BME280;34665;51.886;5.436;2023-02-18T07:13:53;101654.59;;;16.65;100.00
48846;BME280;34665;51.886;5.436;2023-02-18T07:16:18;101664.41;;;16.53;100.00
48846;BME280;34665;51.886;5.436;2023-02-18T07:18:44;101678.06;;;16.58;100.00
48846;BME280;34665;51.886;5.436;2023-02-18T07:21:10;101668.34;;;16.96;100.00
48846;BME280;34665;51.886;5.436;2023-02-18T07:23:36;101673.22;;;16.73;100.00
48846;BME280;34665;51.886;5.436;2023-02-18T07:26:07;101670.19;;;16.95;100.00
48846;BME280;34665;51.886;5.436;2023-02-18T07:28:33;101661.03;;;16.18;100.00
48846;BME280;34665;51.886;5.436;2023-02-18T07:30:59;101652.69;;;16.66;100.00
48846;BME280;34665;51.886;5.436;2023-02-18T07:33:24;101668.03;;;18.24;100.00
48846;BME280;34665;51.886;5.436;2023-02-18T07:35:54;101675.28;;;17.17;100.00
48846;BME280;34665;51.886;5.436;2023-02-18T07:38:20;101674.63;;;17.91;100.00
48846;BME280;34665;51.886;5.436;2023-02-18T07:40:46;101670.41;;;19.12;100.00
48846;BME280;34665;51.886;5.436;2023-02-18T07:43:11;101671.81;;;17.60;100.00
48846;BME280;34665;51.886;5.436;2023-02-18T07:45:37;101660.38;;;17.33;100.00
48846;BME280;34665;51.886;5.436;2023-02-18T07:48:03;101661.00;;;17.98;100.00
48846;BME280;34665;51.886;5.436;2023-02-18T07:50:29;101667.50;;;17.02;100.00
48846;BME280;34665;51.886;5.436;2023-02-18T07:53:02;101667.09;;;17.49;100.00
48846;BME280;34665;51.886;5.436;2023-02-18T07:55:28;101664.06;;;17.13;100.00
48846;BME280;34665;51.886;5.436;2023-02-18T07:58:26;101656.03;;;17.32;100.00
48846;BME280;34665;51.886;5.436;2023-02-18T08:00:53;101655.13;;;17.63;100.00
48846;BME280;34665;51.886;5.436;2023-02-18T08:03:25;101657.47;;;17.34;100.00
48846;BME280;34665;51.886;5.436;2023-02-18T08:05:51;101661.69;;;16.91;100.00
48846;BME280;34665;51.886;5.436;2023-02-18T08:08:21;101664.31;;;17.81;100.00
48846;BME280;34665;51.886;5.436;2023-02-18T08:10:47;101668.00;;;17.87;100.00
48846;BME280;34665;51.886;5.436;2023-02-18T08:13:13;101666.75;;;18.27;100.00
48846;BME280;34665;51.886;5.436;2023-02-18T08:15:39;101665.72;;;17.65;100.00
48846;BME280;34665;51.886;5.436;2023-02-18T08:18:05;101680.03;;;17.22;100.00
48846;BME280;34665;51.886;5.436;2023-02-18T08:20:35;101669.41;;;17.71;100.00
48846;BME280;34665;51.886;5.436;2023-02-18T08:23:01;101663.63;;;17.16;100.00
48846;BME280;34665;51.886;5.436;2023-02-18T08:25:27;101672.13;;;16.88;100.00
48846;BME280;34665;51.886;5.436;2023-02-18T08:27:52;101669.91;;;17.10;100.00
48846;BME280;34665;51.886;5.436;2023-02-18T08:30:18;101678.81;;;17.43;100.00
48846;BME280;34665;51.886;5.436;2023-02-18T08:32:43;101674.66;;;17.15;100.00
48846;BME280;34665;51.886;5.436;2023-02-18T08:35:10;101666.41;;;17.60;100.00
48846;BME280;34665;51.886;5.436;2023-02-18T08:37:36;101686.81;;;17.31;100.00
48846;BME280;34665;51.886;5.436;2023-02-18T08:40:02;101669.81;;;17.24;100.00
48846;BME280;34665;51.886;5.436;2023-02-18T08:42:28;101665.84;;;16.94;100.00
48846;BME280;34665;51.886;5.436;2023-02-18T08:44:53;101685.91;;;16.73;100.00
48846;BME280;34665;51.886;5.436;2023-02-18T08:47:19;101666.53;;;17.22;100.00
48846;BME280;34665;51.886;5.436;2023-02-18T08:49:44;101676.16;;;17.61;100.00
48846;BME280;34665;51.886;5.436;2023-02-18T08:52:10;101662.69;;;17.55;100.00
48846;BME280;34665;51.886;5.436;2023-02-18T08:54:35;101674.78;;;17.52;100.00
48846;BME280;34665;51.886;5.436;2023-02-18T08:57:01;101672.75;;;17.47;100.00
48846;BME280;34665;51.886;5.436;2023-02-18T08:59:26;101686.00;;;17.30;100.00
48846;BME280;34665;51.886;5.436;2023-02-18T09:01:52;101689.69;;;17.61;100.00
48846;BME280;34665;51.886;5.436;2023-02-18T09:04:18;101690.56;;;17.30;100.00
48846;BME280;34665;51.886;5.436;2023-02-18T09:06:48;101675.31;;;17.10;100.00
48846;BME280;34665;51.886;5.436;2023-02-18T09:09:16;101672.44;;;16.66;100.00
48846;BME280;34665;51.886;5.436;2023-02-18T09:11:42;101657.50;;;17.02;100.00
48846;BME280;34665;51.886;5.436;2023-02-18T09:14:08;101676.72;;;17.70;100.00
48846;BME280;34665;51.886;5.436;2023-02-18T09:16:34;101695.16;;;16.45;100.00
48846;BME280;34665;51.886;5.436;2023-02-18T09:18:59;101675.59;;;16.95;100.00
48846;BME280;34665;51.886;5.436;2023-02-18T09:21:25;101677.13;;;17.16;100.00
48846;BME280;34665;51.886;5.436;2023-02-18T09:23:51;101701.94;;;17.06;100.00
48846;BME280;34665;51.886;5.436;2023-02-18T09:26:19;101683.94;;;17.26;100.00
48846;BME280;34665;51.886;5.436;2023-02-18T09:28:48;101679.56;;;16.92;100.00
48846;BME280;34665;51.886;5.436;2023-02-18T09:31:17;101691.72;;;16.70;100.00
48846;BME280;34665;51.886;5.436;2023-02-18T09:33:51;101696.19;;;16.51;100.00
48846;BME280;34665;51.886;5.436;2023-02-18T09:36:18;101697.22;;;16.56;100.00
48846;BME280;34665;51.886;5.436;2023-02-18T09:38:45;101692.34;;;17.68;100.00
48846;BME280;34665;51.886;5.436;2023-02-18T09:41:23;101691.84;;;16.88;100.00
48846;BME280;34665;51.886;5.436;2023-02-18T09:43:54;101688.50;;;16.93;100.00
48846;BME280;34665;51.886;5.436;2023-02-18T09:46:31;101712.13;;;17.04;100.00
48846;BME280;34665;51.886;5.436;2023-02-18T09:49:00;101698.06;;;17.28;100.00
48846;BME280;34665;51.886;5.436;2023-02-18T09:51:26;101684.13;;;16.92;100.00
48846;BME280;34665;51.886;5.436;2023-02-18T09:53:51;101681.88;;;17.21;100.00
48846;BME280;34665;51.886;5.436;2023-02-18T09:56:32;101672.09;;;17.27;100.00
48846;BME280;34665;51.886;5.436;2023-02-18T09:59:02;101685.38;;;17.28;100.00
48846;BME280;34665;51.886;5.436;2023-02-18T10:01:36;101725.69;;;16.98;100.00
48846;BME280;34665;51.886;5.436;2023-02-18T10:04:12;101728.97;;;17.39;100.00
48846;BME280;34665;51.886;5.436;2023-02-18T10:06:39;101703.44;;;17.34;100.00
48846;BME280;34665;51.886;5.436;2023-02-18T10:09:18;101714.47;;;17.01;100.00
48846;BME280;34665;51.886;5.436;2023-02-18T10:11:49;101713.25;;;17.29;100.00
48846;BME280;34665;51.886;5.436;2023-02-18T10:14:15;101709.81;;;17.15;100.00
48846;BME280;34665;51.886;5.436;2023-02-18T10:16:45;101730.31;;;17.80;100.00
48846;BME280;34665;51.886;5.436;2023-02-18T10:19:24;101725.38;;;17.45;100.00
48846;BME280;34665;51.886;5.436;2023-02-18T10:21:53;101721.47;;;17.41;100.00
48846;BME280;34665;51.886;5.436;2023-02-18T10:27:30;101719.16;;;17.70;100.00
48846;BME280;34665;51.886;5.436;2023-02-18T10:32:45;101728.44;;;17.23;100.00
48846;BME280;34665;51.886;5.436;2023-02-18T10:35:39;101747.19;;;18.01;100.00
48846;BME280;34665;51.886;5.436;2023-02-18T10:38:30;101739.56;;;17.66;100.00
48846;BME280;34665;51.886;5.436;2023-02-18T10:52:19;101739.69;;;18.03;100.00
48846;BME280;34665;51.886;5.436;2023-02-18T10:55:05;101756.69;;;18.10;100.00
48846;BME280;34665;51.886;5.436;2023-02-18T10:57:31;101747.59;;;18.42;100.00
48846;BME280;34665;51.886;5.436;2023-02-18T11:00:17;101744.69;;;18.25;100.00
48846;BME280;34665;51.886;5.436;2023-02-18T11:02:43;101755.50;;;17.99;100.00
48846;BME280;34665;51.886;5.436;2023-02-18T11:05:35;101742.41;;;18.03;100.00
48846;BME280;34665;51.886;5.436;2023-02-18T11:08:07;101759.88;;;17.75;100.00
48846;BME280;34665;51.886;5.436;2023-02-18T11:10:38;101736.81;;;18.72;100.00
48846;BME280;34665;51.886;5.436;2023-02-18T11:13:08;101737.28;;;17.69;100.00
48846;BME280;34665;51.886;5.436;2023-02-18T11:15:35;101750.69;;;18.45;100.00
48846;BME280;34665;51.886;5.436;2023-02-18T11:18:37;101744.88;;;19.10;100.00
48846;BME280;34665;51.886;5.436;2023-02-18T11:23:54;101746.97;;;18.02;100.00
48846;BME280;34665;51.886;5.436;2023-02-18T11:26:28;101747.50;;;18.11;100.00
48846;BME280;34665;51.886;5.436;2023-02-18T11:31:44;101732.25;;;17.91;100.00
48846;BME280;34665;51.886;5.436;2023-02-18T11:34:37;101736.28;;;18.08;100.00
48846;BME280;34665;51.886;5.436;2023-02-18T11:37:18;101736.34;;;18.94;100.00
48846;BME280;34665;51.886;5.436;2023-02-18T11:39:46;101735.03;;;19.27;100.00
48846;BME280;34665;51.886;5.436;2023-02-18T11:42:14;101727.59;;;19.23;100.00
48846;BME280;34665;51.886;5.436;2023-02-18T11:44:50;101734.59;;;19.00;100.00
48846;BME280;34665;51.886;5.436;2023-02-18T11:49:59;101735.66;;;18.99;100.00
48846;BME280;34665;51.886;5.436;2023-02-18T11:52:27;101729.69;;;19.09;100.00
48846;BME280;34665;51.886;5.436;2023-02-18T11:57:33;101734.25;;;18.77;100.00
48846;BME280;34665;51.886;5.436;2023-02-18T11:59:59;101727.44;;;18.87;100.00
48846;BME280;34665;51.886;5.436;2023-02-18T12:05:03;101732.53;;;18.65;100.00
48846;BME280;34665;51.886;5.436;2023-02-18T12:07:43;101741.06;;;18.99;100.00
48846;BME280;34665;51.886;5.436;2023-02-18T12:10:32;101734.88;;;18.61;100.00
48846;BME280;34665;51.886;5.436;2023-02-18T12:15:55;101734.97;;;19.03;100.00
48846;BME280;34665;51.886;5.436;2023-02-18T12:23:58;101728.03;;;18.89;100.00
48846;BME280;34665;51.886;5.436;2023-02-18T12:26:37;101733.28;;;18.53;100.00
48846;BME280;34665;51.886;5.436;2023-02-18T12:29:16;101733.44;;;19.08;100.00
48846;BME280;34665;51.886;5.436;2023-02-18T12:32:03;101730.84;;;19.67;100.00
48846;BME280;34665;51.886;5.436;2023-02-18T12:34:46;101721.97;;;19.36;100.00
48846;BME280;34665;51.886;5.436;2023-02-18T12:37:39;101715.53;;;19.06;100.00
48846;BME280;34665;51.886;5.436;2023-02-18T12:40:39;101723.50;;;19.32;100.00
48846;BME280;34665;51.886;5.436;2023-02-18T12:43:40;101734.72;;;19.59;100.00
48846;BME280;34665;51.886;5.436;2023-02-18T12:55:03;101722.69;;;19.01;100.00
48846;BME280;34665;51.886;5.436;2023-02-18T12:57:47;101734.41;;;19.13;100.00
48846;BME280;34665;51.886;5.436;2023-02-18T13:00:33;101734.22;;;18.96;100.00
48846;BME280;34665;51.886;5.436;2023-02-18T13:14:59;101735.91;;;19.52;100.00
48846;BME280;34665;51.886;5.436;2023-02-18T13:17:29;101747.00;;;19.08;100.00
48846;BME280;34665;51.886;5.436;2023-02-18T13:20:01;101742.38;;;19.39;100.00
48846;BME280;34665;51.886;5.436;2023-02-18T13:22:29;101746.03;;;19.02;100.00
48846;BME280;34665;51.886;5.436;2023-02-18T13:24:57;101751.38;;;18.59;100.00
48846;BME280;34665;51.886;5.436;2023-02-18T13:27:47;101742.16;;;19.10;100.00
48846;BME280;34665;51.886;5.436;2023-02-18T13:30:24;101742.25;;;19.03;100.00
48846;BME280;34665;51.886;5.436;2023-02-18T13:33:10;101750.09;;;19.66;100.00
48846;BME280;34665;51.886;5.436;2023-02-18T13:35:51;101750.28;;;19.52;100.00
48846;BME280;34665;51.886;5.436;2023-02-18T13:38:49;101742.41;;;19.08;100.00
48846;BME280;34665;51.886;5.436;2023-02-18T13:41:18;101737.81;;;18.59;100.00
48846;BME280;34665;51.886;5.436;2023-02-18T13:43:43;101744.66;;;18.43;100.00
48846;BME280;34665;51.886;5.436;2023-02-18T13:51:29;101735.94;;;18.60;100.00
48846;BME280;34665;51.886;5.436;2023-02-18T13:54:44;101747.28;;;18.50;100.00
48846;BME280;34665;51.886;5.436;2023-02-18T13:57:03;101740.13;;;19.35;100.00
48846;BME280;34665;51.886;5.436;2023-02-18T14:07:31;101745.41;;;19.30;100.00
48846;BME280;34665;51.886;5.436;2023-02-18T14:10:09;101756.69;;;19.82;100.00
48846;BME280;34665;51.886;5.436;2023-02-18T14:13:19;101757.38;;;19.11;100.00
48846;BME280;34665;51.886;5.436;2023-02-18T14:15:52;101748.53;;;19.03;100.00
48846;BME280;34665;51.886;5.436;2023-02-18T14:18:33;101759.03;;;19.54;100.00
48846;BME280;34665;51.886;5.436;2023-02-18T14:21:21;101775.25;;;19.30;100.00
48846;BME280;34665;51.886;5.436;2023-02-18T14:26:27;101767.94;;;20.86;100.00
48846;BME280;34665;51.886;5.436;2023-02-18T14:29:25;101775.50;;;20.07;100.00
48846;BME280;34665;51.886;5.436;2023-02-18T14:31:53;101760.03;;;19.29;100.00
48846;BME280;34665;51.886;5.436;2023-02-18T14:39:42;101770.78;;;20.14;100.00
48846;BME280;34665;51.886;5.436;2023-02-18T14:50:36;101760.16;;;21.06;100.00